Time;durP1;ratioP1;P1;durP2;ratioP2;P2;SDS_P1;SDS_P2;PMS_P1;PMS_P2;Temp;Humidity;BMP_temperature;BMP_pressure;BME280_temperature;BME280_humidity;BME280_pressure;Samples;Min_cycle;Max_cycle;Signal;HPM_P1;HPM_P2
2024/03/30 00:00:09;;;;;;;5.93;5.43;;;14.70;99.90;;;;;;4976757;28;20467;-74
2024/03/30 00:02:35;;;;;;;5.90;5.40;;;14.80;99.90;;;;;;4977461;28;20470;-73
2024/03/30 00:05:02;;;;;;;4.70;4.30;;;14.70;99.90;;;;;;4977367;28;20801;-72
2024/03/30 00:07:28;;;;;;;6.57;5.93;;;14.70;99.90;;;;;;4976798;28;20797;-72
2024/03/30 00:09:55;;;;;;;5.43;4.93;;;14.70;99.90;;;;;;4977316;28;20482;-73
2024/03/30 00:12:20;;;;;;;4.50;4.10;;;14.70;99.90;;;;;;4977014;28;20808;-73
2024/03/30 00:14:50;;;;;;;6.70;6.10;;;14.70;99.90;;;;;;4977053;28;20477;-73
2024/03/30 00:17:16;;;;;;;5.23;4.83;;;14.70;99.90;;;;;;4995390;28;20470;-72
2024/03/30 00:19:43;;;;;;;5.83;4.60;;;14.70;99.90;;;;;;4996892;28;20488;-73
2024/03/30 00:22:09;;;;;;;6.57;5.20;;;14.60;99.90;;;;;;4990220;28;20470;-73
2024/03/30 00:24:39;;;;;;;6.00;5.50;;;14.60;99.90;;;;;;4977263;28;20577;-73
2024/03/30 00:27:05;;;;;;;4.80;4.40;;;14.60;99.90;;;;;;4977244;28;20820;-73
2024/03/30 00:29:35;;;;;;;6.13;5.53;;;14.60;99.90;;;;;;4976115;28;20463;-73
2024/03/30 00:32:03;;;;;;;5.20;4.80;;;14.60;99.90;;;;;;4976857;28;20498;-73
2024/03/30 00:34:30;;;;;;;5.50;5.00;;;14.60;99.90;;;;;;4976348;28;20463;-74
2024/03/30 00:36:56;;;;;;;5.80;5.30;;;14.50;99.90;;;;;;4976691;28;20826;-72
2024/03/30 00:39:23;;;;;;;5.20;4.70;;;14.50;99.90;;;;;;4976396;28;20470;-73
2024/03/30 00:41:49;;;;;;;5.70;5.30;;;14.50;99.90;;;;;;4976597;28;20493;-73
2024/03/30 00:44:16;;;;;;;5.53;5.03;;;14.50;99.90;;;;;;4976091;28;20467;-72
2024/03/30 00:46:41;;;;;;;5.23;4.83;;;14.50;99.90;;;;;;4976675;28;20471;-72
2024/03/30 00:49:10;;;;;;;5.87;5.27;;;14.50;99.90;;;;;;4976421;28;20463;-72
2024/03/30 00:51:36;;;;;;;6.30;5.70;;;14.50;99.90;;;;;;4976132;28;20459;-72
2024/03/30 00:54:03;;;;;;;6.17;5.30;;;14.50;99.90;;;;;;4976674;28;20477;-72
2024/03/30 00:56:30;;;;;;;7.07;6.37;;;14.50;99.90;;;;;;4975793;28;20477;-73
2024/03/30 00:59:03;;;;;;;6.93;5.87;;;14.40;99.90;;;;;;4976252;28;20470;-73
2024/03/30 01:01:29;;;;;;;6.40;5.53;;;14.40;99.90;;;;;;4976134;28;20473;-73
2024/03/30 01:03:56;;;;;;;7.10;6.40;;;14.40;99.90;;;;;;4976126;28;20478;-73
2024/03/30 01:06:24;;;;;;;5.47;4.97;;;14.40;99.90;;;;;;4975723;28;20475;-73
2024/03/30 01:08:51;;;;;;;6.47;5.87;;;14.40;99.90;;;;;;4976485;28;20510;-73
2024/03/30 01:11:17;;;;;;;6.03;5.53;;;14.40;99.90;;;;;;4975565;28;20482;-73
2024/03/30 01:13:45;;;;;;;7.30;6.57;;;14.40;99.90;;;;;;4976136;28;20223;-73
2024/03/30 01:16:11;;;;;;;6.68;5.95;;;14.30;99.90;;;;;;4985915;28;20229;-73
2024/03/30 01:18:39;;;;;;;6.80;6.10;;;14.30;99.90;;;;;;4994993;28;20604;-73
2024/03/30 01:21:06;;;;;;;7.70;7.00;;;14.30;99.90;;;;;;4995486;28;20952;-73
2024/03/30 01:23:35;;;;;;;6.13;5.63;;;14.20;99.90;;;;;;4978343;28;20463;-73
2024/03/30 01:26:02;;;;;;;6.13;5.53;;;14.20;99.90;;;;;;4975869;28;20971;-73
2024/03/30 01:28:29;;;;;;;6.30;5.80;;;14.20;99.90;;;;;;4975419;28;20258;-73
2024/03/30 01:30:56;;;;;;;7.47;6.77;;;14.10;99.90;;;;;;4975933;28;20290;-73
2024/03/30 01:33:23;;;;;;;7.57;6.50;;;14.10;99.90;;;;;;4975368;28;20467;-73
2024/03/30 01:35:49;;;;;;;7.67;6.17;;;14.10;99.90;;;;;;4975928;28;20786;-73
2024/03/30 01:38:16;;;;;;;6.23;5.70;;;14.10;99.90;;;;;;4975096;28;20473;-73
2024/03/30 01:40:43;;;;;;;6.97;6.38;;;14.00;99.90;;;;;;4975788;28;20471;-73
2024/03/30 01:43:10;;;;;;;7.17;6.57;;;14.00;99.90;;;;;;4975794;28;20227;-73
2024/03/30 01:45:41;;;;;;;7.47;6.10;;;14.00;99.90;;;;;;4975112;28;20474;-73
2024/03/30 01:48:11;;;;;;;6.13;5.50;;;14.00;99.90;;;;;;4975436;28;20231;-73
2024/03/30 01:50:39;;;;;;;6.43;5.85;;;13.90;99.90;;;;;;4975163;28;20290;-73
2024/03/30 01:53:09;;;;;;;7.03;6.43;;;13.90;99.90;;;;;;4975434;28;20223;-73
2024/03/30 01:55:37;;;;;;;6.45;5.85;;;13.90;99.90;;;;;;4974959;28;20238;-73
2024/03/30 01:58:06;;;;;;;8.52;7.72;;;13.90;99.90;;;;;;4975307;28;20251;-73
2024/03/30 02:00:32;;;;;;;7.60;7.00;;;13.90;99.90;;;;;;4993132;28;20233;-73
2024/03/30 02:03:01;;;;;;;6.72;6.13;;;13.90;99.90;;;;;;4994828;28;20296;-73
2024/03/30 02:05:29;;;;;;;6.87;6.23;;;13.90;99.90;;;;;;4994311;28;20637;-72
2024/03/30 02:08:01;;;;;;;7.97;7.28;;;13.90;99.90;;;;;;4994631;28;20533;-72
2024/03/30 02:10:28;;;;;;;8.40;7.55;;;13.90;99.90;;;;;;4993966;28;20306;-72
2024/03/30 02:12:55;;;;;;;9.43;7.88;;;14.00;99.90;;;;;;5011211;28;20687;-72
2024/03/30 02:15:23;;;;;;;7.70;7.10;;;14.00;99.90;;;;;;5010200;28;20230;-73
2024/03/30 02:17:50;;;;;;;7.57;6.90;;;14.00;99.90;;;;;;4994360;28;20474;-73
2024/03/30 02:20:16;;;;;;;7.93;7.10;;;14.00;99.90;;;;;;4994392;28;20477;-73
2024/03/30 02:22:50;;;;;;;7.13;6.53;;;14.10;99.90;;;;;;4983734;28;20250;-72
2024/03/30 02:25:18;;;;;;;7.67;6.93;;;14.10;99.90;;;;;;4974896;28;20471;-72
2024/03/30 02:27:45;;;;;;;8.00;7.30;;;14.10;99.90;;;;;;4974581;28;20470;-72
2024/03/30 02:30:22;;;;;;;6.73;6.10;;;14.10;99.90;;;;;;4974840;28;20581;-72
2024/03/30 02:32:50;;;;;;;8.23;7.53;;;14.10;99.90;;;;;;4974453;28;20533;-72
2024/03/30 02:35:17;;;;;;;7.75;7.05;;;14.10;99.90;;;;;;4973635;28;20467;-72
2024/03/30 02:37:45;;;;;;;8.27;7.57;;;14.10;99.90;;;;;;4974288;28;20250;-71
2024/03/30 02:40:11;;;;;;;7.40;6.47;;;14.10;99.90;;;;;;4974650;28;20477;-73
2024/03/30 02:42:39;;;;;;;6.43;5.93;;;14.00;99.90;;;;;;4973953;28;20470;-73
2024/03/30 02:45:06;;;;;;;8.63;7.40;;;14.00;99.90;;;;;;4985069;28;20689;-73
2024/03/30 02:47:36;;;;;;;7.03;6.43;;;14.00;99.90;;;;;;4993529;28;20477;-73
2024/03/30 02:50:03;;;;;;;5.05;4.20;;;14.00;99.90;;;;;;4993736;28;20226;-73
2024/03/30 02:52:30;;;;;;;4.43;4.13;;;14.00;99.90;;;;;;4993725;28;20261;-72
2024/03/30 02:54:56;;;;;;;7.53;4.88;;;14.00;99.90;;;;;;4993480;28;20257;-72
2024/03/30 02:57:22;;;;;;;5.70;5.17;;;14.00;99.90;;;;;;4993880;28;20305;-72
2024/03/30 02:59:50;;;;;;;5.57;5.07;;;14.10;99.90;;;;;;4993391;28;20810;-73
2024/03/30 03:02:17;;;;;;;4.03;3.73;;;14.00;99.90;;;;;;4993654;28;20222;-72
2024/03/30 03:04:43;;;;;;;4.73;4.30;;;14.00;99.90;;;;;;4993410;28;20485;-73
2024/03/30 03:07:11;;;;;;;4.97;4.47;;;14.00;99.90;;;;;;4993739;28;20983;-73
2024/03/30 03:09:37;;;;;;;5.63;4.97;;;14.00;99.90;;;;;;4993389;28;20573;-72
2024/03/30 03:12:05;;;;;;;4.90;4.47;;;14.00;99.90;;;;;;4996342;28;20474;-73
2024/03/30 03:14:31;;;;;;;4.73;3.93;;;14.00;99.90;;;;;;4997287;28;20483;-73
2024/03/30 03:17:00;;;;;;;5.00;4.60;;;14.00;99.90;;;;;;4997705;28;20963;-73
2024/03/30 03:19:26;;;;;;;3.80;3.50;;;14.00;99.90;;;;;;4998047;28;20855;-73
2024/03/30 03:21:53;;;;;;;5.00;4.50;;;14.00;99.90;;;;;;4996819;28;20771;-72
2024/03/30 03:24:19;;;;;;;4.28;3.88;;;14.00;99.90;;;;;;4997639;28;20553;-72
2024/03/30 03:26:46;;;;;;;4.50;4.10;;;14.00;99.90;;;;;;4997334;28;20313;-73
2024/03/30 03:29:12;;;;;;;3.60;3.35;;;14.00;99.90;;;;;;4997494;28;20478;-73
2024/03/30 03:31:39;;;;;;;4.03;3.73;;;14.00;99.90;;;;;;4997077;28;20565;-72
2024/03/30 03:34:06;;;;;;;3.97;3.58;;;14.00;99.90;;;;;;4997576;28;20465;-71
2024/03/30 03:36:33;;;;;;;4.43;4.03;;;14.00;99.90;;;;;;4996902;28;20230;-72
2024/03/30 03:38:59;;;;;;;4.87;4.37;;;13.90;99.90;;;;;;4997276;28;20470;-72
2024/03/30 03:41:26;;;;;;;5.60;4.47;;;13.90;99.90;;;;;;4997422;28;20780;-72
2024/03/30 03:43:52;;;;;;;6.10;4.17;;;13.90;99.90;;;;;;4996600;28;20811;-73
2024/03/30 03:46:19;;;;;;;3.57;3.27;;;13.90;99.90;;;;;;4997392;28;20461;-73
2024/03/30 03:48:44;;;;;;;6.60;4.33;;;13.90;99.90;;;;;;4996718;28;20466;-72
2024/03/30 03:51:13;;;;;;;4.53;4.00;;;13.90;99.90;;;;;;4996812;28;20828;-73
2024/03/30 03:53:39;;;;;;;5.47;5.00;;;13.90;99.90;;;;;;4996845;28;20473;-73
2024/03/30 03:56:06;;;;;;;4.53;4.13;;;13.90;99.90;;;;;;4995107;28;20457;-73
2024/03/30 03:58:33;;;;;;;4.82;3.78;;;13.90;99.90;;;;;;4994763;28;20829;-73
2024/03/30 04:01:04;;;;;;;4.65;4.28;;;13.90;99.90;;;;;;4994787;28;20245;-73
2024/03/30 04:03:30;;;;;;;4.65;4.20;;;13.90;99.90;;;;;;4995134;28;20229;-72
2024/03/30 04:05:56;;;;;;;4.47;4.07;;;13.80;99.90;;;;;;4994769;28;20246;-73
2024/03/30 04:08:25;;;;;;;4.83;4.23;;;13.80;99.90;;;;;;4994976;28;20474;-72
2024/03/30 04:11:00;;;;;;;4.97;4.57;;;13.80;99.90;;;;;;4995636;28;20484;-73
2024/03/30 04:13:27;;;;;;;4.20;3.90;;;13.80;99.90;;;;;;4996516;28;20465;-70
2024/03/30 04:15:53;;;;;;;4.53;4.15;;;13.70;99.90;;;;;;4996380;28;20939;-72
2024/03/30 04:18:20;;;;;;;3.70;3.40;;;13.70;99.90;;;;;;4996600;28;20261;-72
2024/03/30 04:20:56;;;;;;;4.30;3.97;;;13.70;99.90;;;;;;4996103;28;20223;-72
2024/03/30 04:23:24;;;;;;;4.32;4.00;;;13.70;99.90;;;;;;4996002;28;20480;-72
2024/03/30 04:26:00;;;;;;;5.25;4.20;;;13.70;99.90;;;;;;4996086;28;20227;-72
2024/03/30 04:28:27;;;;;;;5.15;3.28;;;13.70;99.90;;;;;;4996358;28;20308;-72
2024/03/30 04:30:54;;;;;;;3.83;3.50;;;13.60;99.90;;;;;;4995945;28;20616;-72
2024/03/30 04:33:21;;;;;;;4.60;4.20;;;13.60;99.90;;;;;;4996575;28;20222;-72
2024/03/30 04:35:52;;;;;;;4.47;3.70;;;13.60;99.90;;;;;;4995872;28;20222;-72
2024/03/30 04:38:18;;;;;;;4.15;3.50;;;13.60;99.90;;;;;;4996256;28;20253;-72
2024/03/30 04:40:58;;;;;;;4.67;4.27;;;13.60;99.90;;;;;;4995866;28;20211;-72
2024/03/30 04:43:25;;;;;;;4.47;4.15;;;13.60;99.90;;;;;;4996222;28;20470;-73
2024/03/30 04:45:51;;;;;;;4.00;3.60;;;13.50;99.90;;;;;;4995586;28;20235;-72
2024/03/30 04:48:19;;;;;;;4.00;3.70;;;13.50;99.90;;;;;;4996160;28;20223;-72
2024/03/30 04:50:46;;;;;;;4.70;4.30;;;13.50;99.90;;;;;;4995471;28;20238;-72
2024/03/30 04:53:17;;;;;;;4.07;3.75;;;13.50;99.90;;;;;;4995984;28;20309;-72
2024/03/30 04:55:51;;;;;;;4.65;4.25;;;13.50;99.90;;;;;;4995559;28;20293;-72
2024/03/30 04:58:20;;;;;;;4.65;4.25;;;13.50;99.90;;;;;;4996003;28;20628;-72
2024/03/30 05:00:45;;;;;;;6.70;4.75;;;13.50;99.90;;;;;;4995253;28;20214;-72
2024/03/30 05:03:12;;;;;;;7.43;4.10;;;13.50;99.90;;;;;;4996030;28;20704;-72
2024/03/30 05:05:39;;;;;;;4.28;3.90;;;13.50;99.90;;;;;;4995218;28;20820;-72
2024/03/30 05:08:06;;;;;;;5.47;4.45;;;13.50;99.90;;;;;;4995574;28;20233;-72
2024/03/30 05:10:32;;;;;;;4.82;3.67;;;13.40;99.90;;;;;;4995790;28;20226;-72
2024/03/30 05:13:01;;;;;;;4.40;4.00;;;13.40;99.90;;;;;;4995218;28;20281;-72
2024/03/30 05:15:27;;;;;;;7.82;4.20;;;13.50;99.90;;;;;;4995589;28;20879;-72
2024/03/30 05:17:53;;;;;;;5.13;4.07;;;13.50;99.90;;;;;;4995285;28;20306;-72
2024/03/30 05:23:10;;;;;;;3.67;3.37;;;13.50;99.90;;;;;;4975405;28;20218;-73
2024/03/30 05:25:36;;;;;;;3.80;3.38;;;13.50;99.90;;;;;;4995354;28;20462;-73
2024/03/30 05:28:05;;;;;;;3.50;3.20;;;13.50;99.90;;;;;;4994952;28;20696;-73
2024/03/30 05:30:32;;;;;;;4.07;3.78;;;13.50;99.90;;;;;;4995108;28;20482;-73
2024/03/30 05:32:58;;;;;;;4.33;3.93;;;13.50;99.90;;;;;;4994788;28;20223;-72
2024/03/30 05:35:25;;;;;;;4.00;3.70;;;13.50;99.90;;;;;;4994402;28;20967;-73
2024/03/30 05:37:51;;;;;;;5.10;4.57;;;13.50;99.90;;;;;;4994625;28;20481;-73
2024/03/30 05:40:18;;;;;;;4.03;3.70;;;13.50;99.90;;;;;;4995387;28;20223;-72
2024/03/30 05:42:44;;;;;;;4.50;4.10;;;13.60;99.90;;;;;;4995044;28;20481;-72
2024/03/30 05:45:12;;;;;;;4.83;4.33;;;13.60;99.90;;;;;;4994520;28;20458;-72
2024/03/30 05:47:38;;;;;;;3.97;3.45;;;13.60;99.90;;;;;;4995080;28;20477;-72
2024/03/30 05:50:05;;;;;;;4.23;3.83;;;13.60;99.90;;;;;;4994572;28;20688;-73
2024/03/30 05:52:31;;;;;;;3.90;3.60;;;13.60;99.90;;;;;;4994880;28;20822;-72
2024/03/30 05:54:58;;;;;;;3.60;3.30;;;13.70;99.90;;;;;;4994699;28;20539;-72
2024/03/30 05:57:24;;;;;;;4.47;4.13;;;13.70;99.90;;;;;;4994815;28;20470;-72
2024/03/30 05:59:51;;;;;;;4.13;3.73;;;13.70;99.90;;;;;;4994353;28;20476;-73
2024/03/30 06:02:18;;;;;;;5.97;4.70;;;13.80;99.90;;;;;;4994850;28;20465;-73
2024/03/30 06:04:45;;;;;;;5.13;3.50;;;13.80;99.90;;;;;;4994533;28;20497;-72
2024/03/30 06:07:11;;;;;;;4.70;4.30;;;13.80;99.90;;;;;;4994203;28;20477;-72
2024/03/30 06:09:38;;;;;;;4.57;3.90;;;13.80;99.90;;;;;;4994771;28;20461;-72
2024/03/30 06:12:05;;;;;;;3.90;3.60;;;13.80;99.90;;;;;;4994007;28;20823;-72
2024/03/30 06:14:33;;;;;;;5.67;3.93;;;13.80;99.90;;;;;;4994396;28;20469;-73
2024/03/30 06:16:59;;;;;;;5.33;4.83;;;13.80;99.90;;;;;;4993921;28;21014;-73
2024/03/30 06:19:27;;;;;;;4.67;4.00;;;13.90;99.90;;;;;;4994613;28;20862;-73
2024/03/30 06:21:53;;;;;;;4.93;4.47;;;13.90;99.90;;;;;;4994036;28;20794;-72
2024/03/30 06:24:20;;;;;;;4.27;3.87;;;14.00;99.90;;;;;;4994311;28;20464;-72
2024/03/30 06:26:46;;;;;;;5.33;4.57;;;14.00;99.90;;;;;;4994077;28;20473;-72
2024/03/30 06:29:13;;;;;;;5.13;4.73;;;14.00;99.90;;;;;;4993845;28;20750;-72
2024/03/30 06:31:39;;;;;;;5.07;4.50;;;14.00;99.90;;;;;;4994109;28;20466;-72
2024/03/30 06:34:06;;;;;;;4.50;4.10;;;14.00;99.90;;;;;;4993702;28;20974;-72
2024/03/30 06:36:33;;;;;;;4.73;4.30;;;14.00;99.90;;;;;;4994121;28;20478;-72
2024/03/30 06:39:01;;;;;;;5.87;4.80;;;14.10;99.90;;;;;;4993810;28;20477;-72
2024/03/30 06:44:13;;;;;;;5.97;4.77;;;14.20;99.90;;;;;;4993709;28;20449;-72
2024/03/30 06:46:39;;;;;;;6.50;4.80;;;14.20;99.90;;;;;;4993774;28;20474;-72
2024/03/30 06:49:05;;;;;;;5.27;4.77;;;14.20;99.90;;;;;;4993480;28;20466;-72
2024/03/30 06:51:34;;;;;;;4.93;4.53;;;14.20;99.90;;;;;;4994095;28;20474;-72
2024/03/30 06:54:00;;;;;;;8.63;5.07;;;14.10;99.90;;;;;;4993387;28;20474;-72
2024/03/30 06:56:27;;;;;;;5.50;4.70;;;14.20;99.90;;;;;;4993799;28;20470;-73
2024/03/30 06:58:53;;;;;;;4.97;4.53;;;14.20;99.90;;;;;;4993441;28;20469;-72
2024/03/30 07:01:20;;;;;;;4.87;4.20;;;14.20;99.90;;;;;;4993778;28;20472;-72
2024/03/30 07:03:45;;;;;;;5.27;4.77;;;14.30;99.90;;;;;;4993619;28;20967;-73
2024/03/30 07:06:12;;;;;;;5.47;4.20;;;14.30;99.90;;;;;;4993384;28;20466;-73
2024/03/30 07:08:41;;;;;;;5.03;4.60;;;14.30;99.90;;;;;;4993729;28;20967;-72
2024/03/30 07:11:08;;;;;;;5.60;5.10;;;14.40;99.90;;;;;;4993335;28;20513;-72
2024/03/30 07:13:34;;;;;;;4.00;3.70;;;14.40;99.90;;;;;;4993706;28;20480;-73
2024/03/30 07:16:01;;;;;;;6.03;5.43;;;14.50;99.90;;;;;;4993110;28;20545;-72
2024/03/30 07:18:26;;;;;;;5.07;4.07;;;14.50;99.90;;;;;;4993671;28;20491;-73
2024/03/30 07:20:53;;;;;;;4.90;4.50;;;14.60;99.90;;;;;;4993417;28;20462;-72
2024/03/30 07:23:20;;;;;;;6.07;4.13;;;14.70;99.90;;;;;;4993600;28;20469;-74
2024/03/30 07:25:48;;;;;;;5.47;4.33;;;14.70;99.90;;;;;;4993675;28;20964;-72
2024/03/30 07:28:14;;;;;;;6.53;4.90;;;14.80;99.90;;;;;;4992030;28;20462;-73
2024/03/30 07:30:43;;;;;;;4.53;4.23;;;14.80;99.90;;;;;;4993742;28;20461;-71
2024/03/30 07:33:12;;;;;;;5.53;3.80;;;14.90;99.90;;;;;;4992060;28;20482;-72
2024/03/30 07:35:39;;;;;;;4.80;4.20;;;15.00;99.90;;;;;;4993592;28;20955;-72
2024/03/30 07:38:05;;;;;;;5.33;4.87;;;15.00;99.90;;;;;;4992918;28;20478;-73
2024/03/30 07:40:32;;;;;;;5.53;5.00;;;15.20;99.90;;;;;;4993596;28;20468;-73
2024/03/30 07:42:59;;;;;;;5.33;4.33;;;15.20;99.90;;;;;;4992902;28;20804;-73
2024/03/30 07:45:26;;;;;;;6.03;4.20;;;15.30;99.90;;;;;;4993266;28;20952;-72
2024/03/30 07:47:52;;;;;;;8.97;5.30;;;15.30;99.90;;;;;;4993390;28;20501;-71
2024/03/30 07:50:19;;;;;;;5.77;4.60;;;15.40;99.90;;;;;;4992920;28;20493;-72
2024/03/30 07:52:49;;;;;;;7.10;4.57;;;15.50;99.90;;;;;;4993262;28;20818;-72
2024/03/30 07:55:16;;;;;;;6.67;5.00;;;15.50;99.90;;;;;;4992999;28;22952;-73
2024/03/30 07:57:42;;;;;;;4.03;3.70;;;15.60;99.90;;;;;;4993482;28;20481;-73
2024/03/30 08:00:12;;;;;;;6.50;4.50;;;15.70;99.90;;;;;;4996338;28;20474;-73
2024/03/30 08:02:38;;;;;;;8.37;4.17;;;15.80;99.90;;;;;;4997138;28;20470;-73
2024/03/30 08:05:05;;;;;;;5.93;4.10;;;15.90;99.90;;;;;;4996255;28;20478;-73
2024/03/30 08:07:31;;;;;;;6.70;4.47;;;15.90;99.90;;;;;;4996830;28;20948;-73
2024/03/30 08:10:02;;;;;;;6.47;4.33;;;16.00;99.90;;;;;;4996489;28;20522;-72
2024/03/30 08:12:28;;;;;;;5.87;4.47;;;16.10;99.90;;;;;;4996820;28;20801;-72
2024/03/30 08:14:55;;;;;;;7.07;4.00;;;16.20;99.90;;;;;;4996751;28;20466;-73
2024/03/30 08:17:22;;;;;;;6.90;4.23;;;16.20;99.90;;;;;;4996226;28;20947;-73
2024/03/30 08:19:49;;;;;;;5.00;4.27;;;16.30;99.90;;;;;;4996667;28;20469;-73
2024/03/30 08:22:15;;;;;;;7.27;5.20;;;16.40;99.90;;;;;;4996322;28;20781;-72
2024/03/30 08:24:42;;;;;;;5.00;4.47;;;16.50;99.90;;;;;;4996521;28;20470;-73
2024/03/30 08:27:08;;;;;;;5.50;4.53;;;16.50;99.90;;;;;;4995712;28;20478;-73
2024/03/30 08:29:34;;;;;;;6.40;4.60;;;16.60;99.90;;;;;;4996539;28;20468;-72
2024/03/30 08:32:00;;;;;;;6.93;4.53;;;16.70;99.90;;;;;;4995858;28;20477;-72
2024/03/30 08:34:29;;;;;;;8.60;4.80;;;16.80;99.90;;;;;;4996263;28;20453;-72
2024/03/30 08:36:55;;;;;;;10.33;5.20;;;16.80;99.90;;;;;;4996450;28;20476;-73
2024/03/30 08:39:22;;;;;;;7.10;4.77;;;16.80;99.90;;;;;;4995735;28;20557;-73
2024/03/30 08:41:48;;;;;;;6.90;4.23;;;16.80;99.90;;;;;;4996177;28;20466;-73
2024/03/30 08:44:15;;;;;;;8.90;4.97;;;16.90;99.90;;;;;;4995915;28;20486;-72
2024/03/30 08:46:44;;;;;;;4.83;4.17;;;16.90;99.90;;;;;;4996178;28;20484;-73
2024/03/30 08:49:12;;;;;;;8.80;4.37;;;16.90;99.90;;;;;;4995961;28;20457;-73
2024/03/30 08:51:39;;;;;;;8.70;5.27;;;16.90;99.90;;;;;;4996197;28;20478;-73
2024/03/30 08:54:07;;;;;;;10.53;6.70;;;16.90;99.90;;;;;;4995704;28;20478;-72
2024/03/30 08:56:35;;;;;;;15.10;5.43;;;16.90;99.90;;;;;;4996125;28;20811;-72
2024/03/30 08:59:03;;;;;;;15.00;5.27;;;17.00;99.90;;;;;;4995688;28;20470;-72
2024/03/30 09:01:29;;;;;;;14.90;5.90;;;16.90;99.90;;;;;;4996108;28;20791;-72
2024/03/30 09:03:56;;;;;;;8.93;4.77;;;17.00;99.90;;;;;;4995809;28;20481;-72
2024/03/30 09:06:22;;;;;;;7.30;4.70;;;17.00;99.90;;;;;;4995333;28;20498;-72
2024/03/30 09:08:51;;;;;;;8.20;4.37;;;17.10;99.90;;;;;;4995629;28;20559;-74
2024/03/30 09:11:17;;;;;;;18.23;6.47;;;17.10;99.90;;;;;;4995353;28;20501;-73
2024/03/30 09:13:44;;;;;;;12.83;5.80;;;17.10;99.90;;;;;;4995672;28;20868;-73
2024/03/30 09:16:10;;;;;;;12.97;5.10;;;17.10;99.90;;;;;;4994780;28;20549;-73
2024/03/30 09:18:37;;;;;;;9.33;5.27;;;17.20;99.90;;;;;;4995843;28;20473;-72
2024/03/30 09:21:05;;;;;;;14.23;4.93;;;17.20;99.90;;;;;;4994611;28;20558;-73
2024/03/30 09:23:33;;;;;;;13.77;5.87;;;17.30;99.90;;;;;;4994683;28;20556;-73
2024/03/30 09:26:00;;;;;;;16.00;5.63;;;17.40;99.90;;;;;;4995599;28;20863;-72
2024/03/30 09:28:28;;;;;;;20.53;6.77;;;17.50;99.90;;;;;;4994830;28;20470;-72
2024/03/30 09:30:54;;;;;;;22.43;6.30;;;17.50;99.90;;;;;;4995384;28;20466;-72
2024/03/30 09:33:21;;;;;;;17.63;6.10;;;17.50;99.90;;;;;;4994955;28;20468;-72
2024/03/30 09:35:48;;;;;;;20.77;6.40;;;17.70;99.90;;;;;;4995474;28;20826;-72
2024/03/30 09:38:15;;;;;;;18.50;6.10;;;17.70;99.90;;;;;;4994866;28;20466;-72
2024/03/30 09:40:47;;;;;;;18.07;6.33;;;17.80;99.90;;;;;;4995155;28;20515;-72
2024/03/30 09:43:17;;;;;;;19.83;6.93;;;17.90;99.90;;;;;;4994718;28;20963;-72
2024/03/30 09:45:44;;;;;;;25.43;6.60;;;18.00;99.90;;;;;;4994877;28;20484;-73
2024/03/30 09:48:14;;;;;;;21.20;7.17;;;18.10;99.90;;;;;;4994355;28;20528;-73
2024/03/30 09:50:40;;;;;;;34.17;9.90;;;18.20;99.90;;;;;;4995083;28;20807;-73
2024/03/30 09:53:09;;;;;;;23.43;7.80;;;18.20;99.90;;;;;;4994319;28;20553;-72
2024/03/30 09:55:36;;;;;;;23.57;7.23;;;18.30;99.90;;;;;;4994961;28;20476;-73
2024/03/30 09:58:03;;;;;;;23.93;7.33;;;18.40;99.90;;;;;;4994838;28;20816;-73
2024/03/30 10:00:31;;;;;;;16.43;6.50;;;18.50;99.90;;;;;;4994281;28;20791;-73
2024/03/30 10:02:58;;;;;;;17.73;7.40;;;18.60;99.90;;;;;;4994832;28;20481;-72
2024/03/30 10:05:24;;;;;;;16.80;7.47;;;18.60;99.90;;;;;;4993929;28;20484;-71
2024/03/30 10:07:57;;;;;;;21.03;7.60;;;18.80;99.90;;;;;;4994842;28;20465;-71
2024/03/30 10:10:23;;;;;;;23.50;8.50;;;18.80;99.90;;;;;;4994478;28;20227;-72
2024/03/30 10:12:54;;;;;;;24.63;8.47;;;18.80;99.90;;;;;;4994536;28;20482;-71
2024/03/30 10:15:31;;;;;;;28.57;9.10;;;18.90;99.90;;;;;;4993887;28;20532;-72
2024/03/30 10:18:05;;;;;;;26.33;7.30;;;18.90;99.90;;;;;;4994477;28;20470;-72
2024/03/30 10:20:31;;;;;;;23.13;7.97;;;19.00;99.90;;;;;;4993774;28;20468;-72
2024/03/30 10:22:58;;;;;;;23.30;7.87;;;19.10;99.90;;;;;;4994481;28;20550;-72
2024/03/30 10:25:25;;;;;;;28.63;9.17;;;19.10;99.90;;;;;;4994043;28;20477;-72
2024/03/30 10:27:52;;;;;;;32.17;9.97;;;19.20;99.90;;;;;;4994264;28;20466;-72
2024/03/30 10:30:18;;;;;;;27.20;9.03;;;19.20;99.90;;;;;;4993762;28;20474;-72
2024/03/30 10:32:47;;;;;;;22.23;8.97;;;19.30;99.90;;;;;;4994387;28;20472;-72
2024/03/30 10:35:19;;;;;;;18.77;8.07;;;19.30;99.90;;;;;;4993788;28;20469;-72
2024/03/30 10:37:48;;;;;;;20.17;8.67;;;19.40;99.90;;;;;;4994097;28;20474;-72
2024/03/30 10:40:15;;;;;;;24.40;8.83;;;19.50;99.90;;;;;;4993802;28;21000;-72
2024/03/30 10:42:42;;;;;;;32.33;10.17;;;19.50;99.90;;;;;;4994204;28;20849;-72
2024/03/30 10:45:08;;;;;;;24.43;9.23;;;19.60;99.90;;;;;;4994021;28;20561;-72
2024/03/30 10:47:37;;;;;;;25.80;9.50;;;19.80;99.90;;;;;;4993894;28;20462;-72
2024/03/30 10:50:04;;;;;;;20.23;8.50;;;19.90;99.90;;;;;;4994084;28;20470;-72
2024/03/30 10:52:32;;;;;;;20.13;7.87;;;19.90;99.90;;;;;;4993529;28;20516;-72
2024/03/30 10:54:58;;;;;;;32.50;10.60;;;20.10;99.90;;;;;;4994096;28;20485;-72
2024/03/30 10:57:27;;;;;;;36.47;9.40;;;20.20;99.90;;;;;;4993447;28;20837;-72
2024/03/30 10:59:58;;;;;;;29.23;9.97;;;20.20;99.90;;;;;;4993813;28;20472;-73
2024/03/30 11:02:26;;;;;;;29.50;9.43;;;20.20;99.90;;;;;;4993472;28;20465;-72
2024/03/30 11:04:53;;;;;;;25.17;8.70;;;20.40;99.80;;;;;;4993662;28;20474;-72
2024/03/30 11:07:21;;;;;;;29.43;10.47;;;20.40;99.50;;;;;;4993116;28;20520;-72
2024/03/30 11:09:48;;;;;;;38.10;11.97;;;20.50;98.90;;;;;;4994036;28;20828;-72
2024/03/30 11:12:16;;;;;;;42.97;12.73;;;20.60;98.70;;;;;;4993324;28;20470;-72
2024/03/30 11:14:43;;;;;;;36.30;12.30;;;20.70;98.30;;;;;;4993593;28;20469;-72
2024/03/30 11:17:19;;;;;;;34.27;10.80;;;20.70;98.10;;;;;;4993636;28;20478;-72
2024/03/30 11:19:53;;;;;;;28.03;10.17;;;20.80;98.20;;;;;;4993361;28;21309;-73
2024/03/30 11:22:31;;;;;;;27.50;9.87;;;20.90;98.60;;;;;;4993679;28;20471;-72
2024/03/30 11:24:59;;;;;;;28.63;11.17;;;20.90;98.70;;;;;;4994141;28;20461;-72
2024/03/30 11:27:32;;;;;;;21.90;9.57;;;21.00;99.00;;;;;;4993257;28;20552;-72
2024/03/30 11:30:03;;;;;;;30.77;10.30;;;21.00;98.00;;;;;;4993706;28;20556;-72
2024/03/30 11:32:35;;;;;;;41.77;12.40;;;21.10;98.20;;;;;;4993292;28;20481;-73
2024/03/30 11:35:13;;;;;;;50.17;12.90;;;21.10;97.60;;;;;;4997820;28;20466;-73
2024/03/30 11:37:43;;;;;;;40.50;12.50;;;21.10;96.30;;;;;;4996603;28;20461;-74
2024/03/30 11:40:19;;;;;;;57.60;14.60;;;21.20;95.90;;;;;;4997618;28;20542;-71
2024/03/30 11:42:52;;;;;;;36.43;10.70;;;21.20;95.60;;;;;;4996984;28;20756;-72
2024/03/30 11:45:21;;;;;;;42.33;11.10;;;21.30;95.80;;;;;;4997204;28;20481;-71
2024/03/30 11:47:48;;;;;;;44.60;12.23;;;21.40;96.00;;;;;;4996993;28;20458;-72
2024/03/30 11:50:15;;;;;;;47.30;12.80;;;21.40;95.20;;;;;;4997345;28;20491;-72
2024/03/30 11:52:46;;;;;;;51.43;13.67;;;21.50;95.20;;;;;;4996633;28;20477;-72
2024/03/30 11:55:22;;;;;;;49.37;12.50;;;21.50;94.50;;;;;;4997157;28;20470;-72
2024/03/30 11:57:55;;;;;;;48.30;12.17;;;21.50;94.50;;;;;;4996979;28;20485;-72
2024/03/30 12:00:24;;;;;;;55.07;13.93;;;21.60;94.50;;;;;;4996945;28;20474;-72
2024/03/30 12:02:51;;;;;;;42.07;12.67;;;21.60;94.20;;;;;;4996689;28;21193;-72
2024/03/30 12:05:23;;;;;;;49.60;12.00;;;21.70;94.20;;;;;;4996856;28;20465;-72
2024/03/30 12:07:54;;;;;;;47.83;13.60;;;21.70;94.00;;;;;;4996594;28;20513;-71
2024/03/30 12:10:22;;;;;;;34.50;10.53;;;21.80;94.40;;;;;;4997006;28;20468;-72
2024/03/30 12:12:58;;;;;;;51.47;14.17;;;21.80;94.50;;;;;;4996477;28;20470;-72
2024/03/30 12:15:25;;;;;;;55.13;12.73;;;21.80;93.90;;;;;;4996831;28;21026;-72
2024/03/30 12:17:53;;;;;;;55.33;14.13;;;21.80;93.50;;;;;;4996271;28;20476;-72
2024/03/30 12:20:19;;;;;;;40.90;12.37;;;21.90;93.50;;;;;;4996769;28;20979;-72
2024/03/30 12:22:46;;;;;;;48.97;13.93;;;21.90;94.00;;;;;;4996399;28;20466;-72
2024/03/30 12:25:14;;;;;;;39.60;12.47;;;22.00;93.50;;;;;;4996698;28;20488;-72
2024/03/30 12:27:43;;;;;;;44.20;12.57;;;22.10;93.30;;;;;;4996229;28;20510;-72
2024/03/30 12:30:10;;;;;;;38.00;12.90;;;22.10;93.70;;;;;;4996573;28;20486;-72
2024/03/30 12:32:38;;;;;;;39.03;11.57;;;22.10;93.20;;;;;;4995946;28;20565;-72
2024/03/30 12:35:04;;;;;;;33.40;9.93;;;22.10;92.80;;;;;;4996589;28;20462;-72
2024/03/30 12:37:32;;;;;;;26.90;9.97;;;22.20;93.20;;;;;;4995922;28;20546;-71
2024/03/30 12:39:58;;;;;;;36.13;11.40;;;22.20;93.80;;;;;;4996319;28;20463;-72
2024/03/30 12:42:26;;;;;;;46.37;12.60;;;22.20;94.00;;;;;;4996460;28;20465;-72
2024/03/30 12:44:56;;;;;;;51.07;13.73;;;22.20;94.00;;;;;;4995120;28;20454;-73
2024/03/30 12:47:23;;;;;;;50.53;13.67;;;22.20;92.70;;;;;;4996147;28;20489;-72
2024/03/30 12:49:50;;;;;;;48.53;13.10;;;22.20;93.70;;;;;;4995797;28;20466;-72